Hlavní strana
METAR-TAF:

METAR-TAF

Letiště :

Berlevåg, Norsko

zeměpisná šířka: 70-52N, zeměpisná délka: 029-02E, výška: 1 m

Aktuální stav počasí

Zpráva byla vytvořena před 59 minutami, v 16:50 UTC
Jihojihozápadní vítr 18 kt
Teplota -7°C
Vlhkost vzduchu 73%
Tlak 994 hPa
Viditelnost 10 km a více
Žádná oblačnost pod 1500 m, nevyskytují se cumulonimby.

METAR: ENBV 181650Z 20018KT CAVOK M07/M11 Q0994

Čas: 18:49 (17:49 UTC)

Předpověď počasí

Zpráva byla vytvořena před 49 minutami, v 17:00 UTC
Předpověď platná od 18 v 18 UTC do 18 v 22 UTC
Jihojihozápadní vítr 15 kt
Viditelnost 10 km a více
Polojasno ve výšce 3000 ft
Dočasný
od 18 v 19 UTC do 18 v 22 UTC
Jihojihozápadní vítr 25 kt s nárazy do 35 kt

TAF: ENBV 181700Z 1818/1822 21015KT 9999 SCT030 TEMPO 1819/1822 21025G35KT

Stav a předpovědi počasí z více než 4 000 letišť (zprávy METAR a TAF).

Červené a žluté tečky na mapě představují dostupné meteorologické stanice.

Když kurzor umístíte na tečku, zobrazí se název stanice.

Pak kliknutím zobrazíte stav a předpověď počasí.

Chcete-li změnit mapu, kliknutím na zelené tlačítko se znaménkem +mapu přiblížíte, kliknutím na zelené tlačítko se znaménkem – mapu oddálíte a kliknutím na zelené šipky přejdete na sousední mapy.


METAR-TAF: